Latest Weather Observations for Albany Airport

IDW60801

Issued at 11:23 am WST Sunday 10 May 2026 (issued every 10 minutes, with the page automatically refreshed every 10 minutes)

About weather observations | Map of weather stations | Latest weather observations for WA | Other Formats
Station Details ID: 009999 Name: ALBANY AIRPORT Lat: -34.94 Lon: 117.82 Height: 68.4 m
Data from the previous 72 hours. | See also: Recent months at Albany Airport
Date/Time
WST
Temp
°C
App
Temp
°C
Dew
Point
°C
Rel
Hum
%
Delta-T
°C
Wind Press
QNH
hPa
Press
MSL
hPa
Rain since
9am
mm
Dir  Spd
km/h
Gust
km/h
Spd
kts
Gust
kts
10/11:00am 19.3 15.3 9.2 52 5.3 N 20 28 11 15 1027.5 1027.5 0.0
10/10:30am 18.4 13.8 9.7 57 4.6 NNW 24 30 13 16 1027.6 1027.6 0.0
10/10:00am 17.8 14.2 9.7 59 4.3 N 19 26 10 14 1028.0 1028.0 0.0
10/09:30am 17.2 13.7 10.3 64 3.7 N 19 22 10 12 1028.1 1028.1 0.0
10/09:00am 14.2 12.7 9.2 72 2.5 E 7 11 4 6 1028.3 1028.3 0.0
10/08:30am 12.9 11.4 9.2 78 1.9 ENE 7 9 4 5 1028.4 1028.4 0.0
10/08:00am 11.6 9.6 8.5 81 1.5 ENE 9 11 5 6 1028.4 1028.4 0.0
10/07:30am 9.9 7.4 8.0 88 0.9 ENE 11 13 6 7 1028.3 1028.3 0.0
10/07:00am 7.8 4.9 6.6 92 0.5 NE 11 13 6 7 1028.1 1028.1 0.0
10/06:30am 8.2 5.7 6.7 90 0.7 NE 9 11 5 6 1027.9 1027.9 0.0
10/06:00am 8.7 6.0 7.3 91 0.7 ENE 11 15 6 8 1027.7 1027.7 0.0
10/05:30am 8.7 6.7 7.3 91 0.7 NE 7 9 4 5 1027.6 1027.6 0.0
10/05:00am 8.6 6.3 7.5 93 0.5 NE 9 11 5 6 1027.4 1027.4 0.0
10/04:30am 8.5 6.6 7.4 93 0.5 ENE 7 9 4 5 1027.3 1027.3 0.0
10/04:00am 9.4 7.7 8.2 92 0.6 ENE 7 9 4 5 1027.2 1027.2 0.0
10/03:30am 9.7 7.5 7.8 88 0.9 ENE 9 11 5 6 1027.2 1027.2 0.0
10/03:00am 10.8 8.3 8.4 85 1.2 ENE 11 15 6 8 1027.3 1027.3 0.0
10/02:30am 11.3 8.6 9.0 86 1.1 ENE 13 20 7 11 1027.3 1027.3 0.0
10/02:00am 11.7 9.9 9.3 85 1.2 ENE 9 15 5 8 1027.4 1027.4 0.0
10/01:30am 12.2 10.4 9.4 83 1.4 ENE 9 13 5 7 1027.5 1027.5 0.0
10/01:00am 12.3 10.2 9.7 84 1.3 ENE 11 17 6 9 1027.5 1027.5 0.0
10/12:30am 12.7 10.3 9.9 83 1.4 ENE 13 17 7 9 1027.9 1027.9 0.0
10/12:00am 13.0 10.7 10.4 84 1.3 ENE 13 20 7 11 1028.0 1028.0 0.0
 
Date/Time
WST
Temp
°C
App
Temp
°C
Dew
Point
°C
Rel
Hum
%
Delta-T
°C
Wind Press
QNH
hPa
Press
MSL
hPa
Rain since
9am
mm
Dir  Spd
km/h
Gust
km/h
Spd
kts
Gust
kts
09/11:30pm 12.9 11.4 10.4 85 1.3 ENE 9 17 5 9 1028.2 1028.2 0.0
09/11:00pm 12.9 11.4 10.4 85 1.3 ENE 9 15 5 8 1028.3 1028.3 0.0
09/10:30pm 13.0 10.3 10.5 85 1.3 NE 15 20 8 11 1028.4 1028.4 0.0
09/10:00pm 12.7 10.0 10.2 85 1.3 NE 15 20 8 11 1028.5 1028.5 0.0
09/09:30pm 13.3 9.6 10.3 82 1.6 NE 20 26 11 14 1028.3 1028.3 0.0
09/09:00pm 13.5 9.0 10.1 80 1.8 NE 24 32 13 17 1028.3 1028.3 0.0
09/08:30pm 13.4 9.2 9.8 79 1.9 NE 22 30 12 16 1028.2 1028.2 0.0
09/08:00pm 13.3 10.9 10.1 81 1.6 NE 13 19 7 10 1028.2 1028.2 0.0
09/07:30pm 13.5 11.6 10.5 82 1.6 ENE 11 19 6 10 1028.4 1028.4 0.0
09/07:00pm 13.9 10.9 10.5 80 1.8 ENE 17 24 9 13 1028.2 1028.2 0.0
09/06:30pm 14.5 11.2 10.9 79 1.9 ENE 19 24 10 13 1028.0 1028.0 0.0
09/06:00pm 14.7 11.5 11.1 79 1.9 ENE 19 28 10 15 1027.8 1027.8 0.0
09/05:30pm 15.3 12.0 10.9 75 2.3 ENE 19 24 10 13 1027.5 1027.5 0.0
09/05:00pm 16.7 13.4 11.0 69 3.0 E 19 28 10 15 1027.3 1027.3 0.0
09/04:30pm 18.9 15.1 7.7 48 5.7 ENE 17 24 9 13 1027.0 1027.0 0.0
09/04:00pm 20.0 16.5 7.4 44 6.4 ENE 15 20 8 11 1027.3 1027.3 0.0
09/03:30pm 20.4 16.9 7.1 42 6.8 ENE 15 19 8 10 1027.2 1027.2 0.0
09/03:00pm 20.5 17.0 7.2 42 6.8 NE 15 20 8 11 1027.2 1027.2 0.0
09/02:30pm 20.4 17.1 8.1 45 6.4 NNE 15 20 8 11 1027.3 1027.3 0.0
09/02:00pm 20.0 17.4 7.7 45 6.3 NNE 11 20 6 11 1027.5 1027.5 0.0
09/01:30pm 19.3 15.4 7.1 45 6.2 NNE 17 28 9 15 1027.9 1027.9 0.0
09/01:00pm 19.1 15.2 7.2 46 6.0 NNE 17 24 9 13 1028.2 1028.2 0.0
09/12:30pm 19.4 15.4 8.4 49 5.7 NNE 19 24 10 13 1028.8 1028.8 0.0
09/12:00pm 19.0 14.8 8.4 50 5.5 N 20 28 11 15 1029.3 1029.3 0.0
09/11:30am 18.7 14.7 8.4 51 5.3 N 19 28 10 15 1030.0 1030.0 0.0
09/11:00am 18.1 14.1 8.1 52 5.1 N 19 24 10 13 1030.6 1030.6 0.0
09/10:30am 16.6 13.8 8.6 59 4.1 NNE 13 17 7 9 1030.9 1030.9 0.0
09/10:00am 15.8 12.5 8.1 60 3.9 NE 15 20 8 11 1031.2 1031.2 0.0
09/09:30am 14.4 11.1 8.1 66 3.2 ENE 15 19 8 10 1031.4 1031.4 0.0
09/09:00am 13.2 10.2 7.9 70 2.6 ENE 13 19 7 10 1031.7 1031.7 0.0
09/08:30am 12.4 10.4 7.3 71 2.5 NE 7 13 4 7 1031.8 1031.8 0.0
09/08:00am 10.8 8.1 7.3 79 1.7 ENE 11 15 6 8 1031.5 1031.5 0.0
09/07:30am 9.3 6.9 6.9 85 1.1 ENE 9 11 5 6 1031.4 1031.4 0.0
09/07:00am 8.8 5.2 6.6 86 1.0 ENE 15 20 8 11 1031.1 1031.1 0.0
09/06:30am 9.1 5.1 6.7 85 1.1 ENE 17 22 9 12 1030.8 1030.8 0.0
09/06:00am 9.5 5.6 6.9 84 1.2 ENE 17 20 9 11 1030.6 1030.6 0.0
09/05:30am 9.9 5.6 7.2 83 1.3 ENE 19 24 10 13 1030.5 1030.5 0.0
09/05:00am 10.2 6.0 7.3 82 1.4 ENE 19 24 10 13 1030.4 1030.4 0.0
09/04:30am 10.3 6.9 7.5 83 1.3 NE 15 19 8 10 1030.5 1030.5 0.0
09/04:00am 10.7 6.5 7.6 81 1.5 NE 19 22 10 12 1030.3 1030.3 0.0
09/03:30am 11.0 6.9 7.7 80 1.6 NE 19 26 10 14 1030.2 1030.2 0.0
09/03:00am 11.3 7.0 7.8 79 1.7 NE 20 28 11 15 1030.4 1030.4 0.0
09/02:30am 11.3 7.2 7.8 79 1.7 NE 19 24 10 13 1030.4 1030.4 0.0
09/02:00am 11.7 7.4 7.8 77 1.9 NE 20 28 11 15 1030.5 1030.5 0.0
09/01:30am 11.8 8.1 8.1 78 1.8 NE 17 28 9 15 1030.5 1030.5 0.0
09/01:00am 11.4 8.2 8.4 82 1.5 NE 15 20 8 11 1030.5 1030.5 0.0
09/12:30am 11.3 8.9 8.7 84 1.3 NE 11 15 6 8 1030.7 1030.7 0.0
09/12:00am 11.6 8.9 9.0 84 1.3 NE 13 19 7 10 1030.7 1030.7 0.0
 
Date/Time
WST
Temp
°C
App
Temp
°C
Dew
Point
°C
Rel
Hum
%
Delta-T
°C
Wind Press
QNH
hPa
Press
MSL
hPa
Rain since
9am
mm
Dir  Spd
km/h
Gust
km/h
Spd
kts
Gust
kts
08/11:30pm 11.8 8.4 9.0 83 1.4 ENE 17 19 9 10 1030.9 1030.9 0.0
08/11:00pm 11.8 8.7 8.8 82 1.5 ENE 15 20 8 11 1031.1 1031.1 0.0
08/10:30pm 12.0 9.4 9.2 83 1.4 ENE 13 19 7 10 1031.4 1031.4 0.0
08/10:00pm 12.1 8.7 9.1 82 1.5 ENE 17 22 9 12 1031.5 1031.5 0.0
08/09:30pm 12.2 9.2 9.4 83 1.4 NE 15 19 8 10 1031.5 1031.5 0.0
08/09:00pm 12.1 9.4 9.1 82 1.5 NE 13 19 7 10 1031.5 1031.5 0.0
08/08:30pm 12.9 9.6 9.7 81 1.6 ENE 17 24 9 13 1031.3 1031.3 0.0
08/08:00pm 13.3 9.7 9.9 80 1.7 ENE 19 22 10 12 1031.4 1031.4 0.0
08/07:30pm 13.6 10.5 10.2 80 1.8 ENE 17 24 9 13 1031.2 1031.2 0.0
08/07:00pm 13.6 10.5 10.2 80 1.8 ENE 17 22 9 12 1031.3 1031.3 0.0
08/06:30pm 14.0 10.4 10.0 77 2.1 ENE 19 24 10 13 1031.4 1031.4 0.0
08/06:00pm 14.4 11.2 10.0 75 2.3 ENE 17 22 9 12 1031.0 1031.0 0.0
08/05:30pm 15.3 11.2 10.1 71 2.7 ENE 22 30 12 16 1030.9 1030.9 0.0
08/05:00pm 15.9 11.8 10.0 68 3.1 ENE 22 33 12 18 1030.7 1030.7 0.0
08/04:30pm 17.0 12.5 10.1 64 3.7 ENE 24 33 13 18 1030.5 1030.5 0.0
08/04:00pm 17.7 12.6 10.6 63 3.8 E 28 37 15 20 1030.6 1030.6 0.0
08/03:30pm 18.5 14.2 10.6 60 4.3 E 24 33 13 18 1030.4 1030.4 0.0
08/03:00pm 19.0 14.4 11.1 60 4.3 E 26 35 14 19 1030.4 1030.4 0.0
08/02:30pm 20.2 16.5 9.5 50 5.7 ENE 19 28 10 15 1030.5 1030.5 0.0
08/02:00pm 20.0 15.8 8.4 47 6.0 ENE 20 30 11 16 1030.8 1030.8 0.0
08/01:30pm 19.6 15.8 9.2 51 5.5 ENE 19 26 10 14 1031.2 1031.2 0.0
08/01:00pm 20.4 17.1 9.6 50 5.7 ENE 17 24 9 13 1031.6 1031.6 0.0
08/12:30pm 19.7 16.3 9.3 51 5.5 ENE 17 24 9 13 1032.2 1032.2 0.0
08/12:00pm 19.3 15.6 10.3 56 4.8 NE 20 28 11 15 1032.8 1032.8 0.0
08/11:30am 18.8 15.2 9.8 56 4.8 ENE 19 24 10 13 1033.4 1033.4 0.0
08/11:00am 18.1 15.6 11.0 63 3.8 ENE 15 19 8 10 1033.7 1033.7 0.0
08/10:30am 16.9 14.2 10.3 65 3.5 NE 15 20 8 11 1034.0 1034.0 0.0
08/10:00am 15.8 12.7 10.3 70 2.9 ENE 17 24 9 13 1034.2 1034.2 0.0
08/09:30am 15.0 12.0 10.6 75 2.3 ENE 17 22 9 12 1034.4 1034.4 0.0
08/09:00am 13.8 10.6 10.0 78 2.0 ENE 17 20 9 11 1034.6 1034.6 0.0
08/08:30am 12.6 9.6 9.4 81 1.6 ENE 15 19 8 10 1034.5 1034.5 0.0
08/08:00am 11.6 9.3 9.0 84 1.3 ENE 11 15 6 8 1034.5 1034.5 0.0
08/07:30am 10.4 8.4 8.8 90 0.8 E 9 11 5 6 1034.4 1034.4 0.0
08/07:00am 9.4 6.9 8.2 92 0.6 ENE 11 13 6 7 1034.2 1034.2 0.0
08/06:30am 9.2 7.4 8.1 93 0.5 E 7 9 4 5 1034.1 1034.1 0.0
08/06:00am 9.0 6.9 8.1 94 0.4 ENE 9 11 5 6 1033.9 1033.9 0.0
08/05:30am 9.4 7.3 8.3 93 0.5 NE 9 11 5 6 1033.8 1033.8 0.0
08/05:00am 9.3 7.2 8.2 93 0.5 NE 9 11 5 6 1033.7 1033.7 0.0
08/04:30am 9.9 7.9 8.7 92 0.6 ENE 9 11 5 6 1033.4 1033.4 0.0
08/04:00am 10.2 8.7 9.0 92 0.6 E 7 9 4 5 1033.4 1033.4 0.0
08/03:30am 10.7 8.4 9.0 89 0.8 ENE 11 13 6 7 1033.3 1033.3 0.0
08/03:00am 11.5 9.3 9.4 87 1.0 ENE 11 15 6 8 1033.3 1033.3 0.0
08/02:30am 12.3 10.3 10.2 87 1.1 NE 11 15 6 8 1033.1 1033.1 0.0
08/02:00am 12.5 9.8 10.4 87 1.1 NE 15 20 8 11 1033.0 1033.0 0.0
08/01:30am 12.2 9.6 10.6 90 0.8 NE 15 17 8 9 1033.1 1033.1 0.0
08/01:00am 11.9 10.0 10.6 92 0.7 NE 11 15 6 8 1033.4 1033.4 0.0
08/12:30am 10.9 9.3 10.3 96 0.3 NE 9 11 5 6 1033.4 1033.4 0.0
08/12:00am 10.7 9.5 10.2 97 0.3 NNE 7 9 4 5 1033.2 1033.2 0.0
 
Date/Time
WST
Temp
°C
App
Temp
°C
Dew
Point
°C
Rel
Hum
%
Delta-T
°C
Wind Press
QNH
hPa
Press
MSL
hPa
Rain since
9am
mm
Dir  Spd
km/h
Gust
km/h
Spd
kts
Gust
kts
07/11:30pm 10.5 9.2 10.0 97 0.3 NE 7 9 4 5 1033.2 1033.2 0.0
07/11:00pm 10.2 8.8 9.7 97 0.2 NNE 7 9 4 5 1033.3 1033.3 0.0
07/10:30pm 11.4 10.2 10.3 93 0.6 ENE 7 7 4 4 1033.4 1033.4 0.0
07/10:00pm 12.2 10.8 10.9 92 0.7 ENE 9 11 5 6 1033.5 1033.5 0.0
07/09:30pm 12.3 10.9 10.9 91 0.7 ENE 9 11 5 6 1033.6 1033.6 0.0
07/09:00pm 13.5 11.5 11.6 88 1.0 ENE 13 19 7 10 1033.5 1033.5 0.0
07/08:30pm 13.9 11.6 11.6 86 1.2 ENE 15 20 8 11 1033.3 1033.3 0.0
07/08:00pm 13.6 11.2 11.5 87 1.1 ENE 15 17 8 9 1033.3 1033.3 0.0
07/07:30pm 14.1 12.0 11.3 83 1.5 ENE 13 17 7 9 1033.3 1033.3 0.0
07/07:00pm 14.6 12.2 11.4 81 1.7 E 15 19 8 10 1033.1 1033.1 0.0
07/06:30pm 15.1 12.8 11.7 80 1.8 E 15 22 8 12 1032.9 1032.9 0.0
07/06:00pm 15.0 13.2 12.1 83 1.6 E 13 15 7 8 1032.7 1032.7 0.0
07/05:30pm 16.1 13.3 12.7 80 1.9 E 19 24 10 13 1032.4 1032.4 0.0
07/05:00pm 16.5 14.1 12.7 78 2.1 ESE 17 20 9 11 1032.5 1032.5 0.0
07/04:30pm 16.9 14.2 12.8 77 2.3 ESE 19 24 10 13 1032.5 1032.5 0.0
07/04:00pm 17.6 15.1 14.1 80 2.0 SE 20 24 11 13 1032.5 1032.5 0.0
07/03:30pm 18.0 15.4 13.9 77 2.3 SE 20 26 11 14 1032.5 1032.5 0.0
07/03:00pm 18.3 16.3 14.0 76 2.4 SE 17 24 9 13 1032.5 1032.5 0.0
07/02:30pm 18.9 17.4 14.2 74 2.7 ESE 15 20 8 11 1032.5 1032.5 0.0
07/02:00pm 18.9 17.2 13.7 72 3.0 ESE 15 20 8 11 1032.7 1032.7 0.0
07/01:30pm 19.4 17.9 11.9 62 4.2 E 11 19 6 10 1032.9 1032.9 0.0
07/01:00pm 19.2 18.1 12.0 63 4.0 ENE 9 15 5 8 1033.1 1033.1 0.0
07/12:30pm 18.0 16.2 12.2 69 3.2 ESE 13 17 7 9 1033.5 1033.5 0.0
07/12:00pm 18.9 17.0 11.7 63 3.9 ENE 13 19 7 10 1034.0 1034.0 0.0
07/11:30am 18.1 17.1 12.3 69 3.2 E 9 17 5 9 1034.3 1034.3 0.0

Other formats

Comma delimited format used in spreadsheet applications
http://www.bom.gov.au/fwo/IDW60801/IDW60801.94802.axf

JavaScript Object Notation format (JSON) in row-major order
http://www.bom.gov.au/fwo/IDW60801/IDW60801.94802.json

Data quality

Most of these data are generated automatically and are frequently updated. Quality checks on data are not normally performed. It is possible for incorrect values to appear. Refer to information at About Latest Weather Observations and please check the disclaimer before using these data.